createdAt,value
2023-11-11T00:00:01.553Z,7.38
2023-11-11T00:02:33.044Z,7.43
2023-11-11T00:05:00.318Z,7.38
2023-11-11T00:07:27.582Z,7.40
2023-11-11T00:09:54.816Z,7.22
2023-11-11T00:12:22.722Z,7.00
2023-11-11T00:14:50.098Z,8.05
2023-11-11T00:17:17.455Z,7.10
2023-11-11T00:19:46.189Z,7.28
2023-11-11T00:22:14.042Z,7.47
2023-11-11T00:24:41.196Z,7.32
2023-11-11T00:27:08.355Z,8.02
2023-11-11T00:29:36.073Z,8.18
2023-11-11T00:32:04.286Z,7.97
2023-11-11T00:34:31.530Z,7.22
2023-11-11T00:36:59.155Z,7.10
2023-11-11T00:39:27.147Z,7.07
2023-11-11T00:41:54.313Z,7.32
2023-11-11T00:44:22.559Z,6.90
2023-11-11T00:46:50.106Z,8.80
2023-11-11T00:49:17.328Z,7.07
2023-11-11T00:51:44.703Z,8.35
2023-11-11T00:54:12.056Z,7.55
2023-11-11T00:56:40.281Z,7.97
2023-11-11T00:59:07.921Z,7.55
2023-11-11T01:01:36.254Z,7.90
2023-11-11T01:04:06.236Z,8.95
2023-11-11T01:06:34.950Z,7.15
2023-11-11T01:09:02.575Z,7.93
2023-11-11T01:11:29.955Z,7.93
2023-11-11T01:13:57.318Z,8.68
2023-11-11T01:16:24.627Z,9.07
2023-11-11T01:18:52.647Z,9.02
2023-11-11T01:21:20.071Z,8.98
2023-11-11T01:23:47.379Z,8.95
2023-11-11T01:26:14.643Z,9.20
2023-11-11T01:28:41.946Z,9.35
2023-11-11T01:31:09.534Z,8.45
2023-11-11T01:33:39.754Z,8.82
2023-11-11T01:36:07.396Z,8.07
2023-11-11T01:38:35.633Z,8.18
2023-11-11T01:41:06.592Z,8.13
2023-11-11T01:43:33.946Z,9.38
2023-11-11T01:46:07.204Z,8.80
2023-11-11T01:48:36.304Z,9.40
2023-11-11T01:51:04.449Z,9.27
2023-11-11T01:53:35.112Z,8.15
2023-11-11T01:56:02.968Z,9.00
2023-11-11T01:58:31.361Z,8.80
2023-11-11T02:01:00.145Z,8.35
2023-11-11T02:03:27.559Z,8.82
2023-11-11T02:05:55.347Z,9.05
2023-11-11T02:08:25.699Z,9.73
2023-11-11T02:10:54.068Z,9.27
2023-11-11T02:13:23.268Z,9.57
2023-11-11T02:15:51.144Z,9.45
2023-11-11T02:18:18.821Z,8.90
2023-11-11T02:20:46.230Z,8.63
2023-11-11T02:23:13.492Z,8.85
2023-11-11T02:28:08.503Z,9.60
2023-11-11T02:30:36.063Z,8.20
2023-11-11T02:33:03.763Z,9.23
2023-11-11T02:35:32.997Z,9.48
2023-11-11T02:38:01.649Z,8.60
2023-11-11T02:40:28.904Z,8.93
2023-11-11T02:42:56.037Z,8.45
2023-11-11T02:45:25.009Z,9.50
2023-11-11T02:47:52.388Z,11.75
2023-11-11T02:50:19.576Z,9.15
2023-11-11T02:52:46.958Z,10.05
2023-11-11T02:55:14.338Z,10.13
2023-11-11T02:57:41.500Z,9.23
2023-11-11T03:00:11.904Z,9.40
2023-11-11T03:02:41.534Z,10.07
2023-11-11T03:05:09.212Z,9.18
2023-11-11T03:07:36.679Z,9.68
2023-11-11T03:10:06.551Z,10.13
2023-11-11T03:12:34.323Z,9.30
2023-11-11T03:15:01.687Z,9.60
2023-11-11T03:17:32.753Z,9.02
2023-11-11T03:20:00.613Z,9.52
2023-11-11T03:22:31.263Z,9.73
2023-11-11T03:24:59.027Z,10.05
2023-11-11T03:27:26.206Z,9.45
2023-11-11T03:29:53.540Z,9.75
2023-11-11T03:32:20.787Z,9.38
2023-11-11T03:34:47.999Z,9.88
2023-11-11T03:37:15.261Z,9.75
2023-11-11T03:39:44.846Z,9.52
2023-11-11T03:42:12.469Z,9.88
2023-11-11T03:44:40.035Z,9.77
2023-11-11T03:47:07.663Z,10.18
2023-11-11T03:49:34.908Z,9.52
2023-11-11T03:52:02.100Z,10.77
2023-11-11T03:54:29.495Z,10.05
2023-11-11T03:56:56.736Z,10.23
2023-11-11T03:59:24.016Z,9.68
2023-11-11T04:01:53.013Z,9.80
2023-11-11T04:04:20.650Z,10.35
2023-11-11T04:06:48.025Z,9.55
2023-11-11T04:09:15.210Z,10.55
2023-11-11T04:11:42.463Z,10.38
2023-11-11T04:14:09.636Z,10.80
2023-11-11T04:16:36.913Z,12.13
2023-11-11T04:19:04.989Z,11.95
2023-11-11T04:21:32.633Z,11.68
2023-11-11T04:23:59.796Z,10.48
2023-11-11T04:26:26.932Z,10.75
2023-11-11T04:28:54.858Z,10.70
2023-11-11T04:31:22.165Z,10.40
2023-11-11T04:33:49.738Z,10.18
2023-11-11T04:36:17.111Z,12.20
2023-11-11T04:38:46.109Z,10.18
2023-11-11T04:41:14.399Z,10.95
2023-11-11T04:43:41.606Z,10.38
2023-11-11T04:46:08.938Z,10.40
2023-11-11T04:48:36.117Z,10.75
2023-11-11T04:51:03.470Z,10.68
2023-11-11T04:53:30.577Z,10.48
2023-11-11T04:55:57.673Z,10.80
2023-11-11T04:58:26.061Z,10.40
2023-11-11T05:00:55.172Z,10.57
2023-11-11T05:03:22.572Z,11.65
2023-11-11T05:05:49.795Z,12.13
2023-11-11T05:08:17.164Z,10.85
2023-11-11T05:10:44.437Z,10.70
2023-11-11T05:13:11.707Z,11.57
2023-11-11T05:15:47.609Z,11.32
2023-11-11T05:18:17.733Z,10.25
2023-11-11T05:20:44.900Z,10.30
2023-11-11T05:23:12.143Z,12.27
2023-11-11T05:25:39.493Z,10.63
2023-11-11T05:28:07.387Z,10.30
2023-11-11T05:30:34.925Z,11.68
2023-11-11T05:33:02.367Z,11.63
2023-11-11T05:35:29.543Z,11.52
2023-11-11T05:37:56.747Z,12.20
2023-11-11T05:40:23.867Z,11.95
2023-11-11T05:42:51.131Z,12.02
2023-11-11T05:45:19.359Z,12.55
2023-11-11T05:47:46.868Z,13.30
2023-11-11T05:50:14.668Z,12.65
2023-11-11T05:52:42.860Z,12.13
2023-11-11T05:55:10.086Z,12.65
2023-11-11T05:57:40.678Z,12.63
2023-11-11T06:00:13.116Z,13.00
2023-11-11T06:02:40.810Z,13.05
2023-11-11T06:05:08.596Z,13.07
2023-11-11T06:07:35.939Z,13.52
2023-11-11T06:10:03.926Z,12.10
2023-11-11T06:12:31.325Z,12.52
2023-11-11T06:14:59.235Z,12.55
2023-11-11T06:17:27.314Z,11.98
2023-11-11T06:19:55.053Z,13.27
2023-11-11T06:22:22.451Z,13.85
2023-11-11T06:24:49.646Z,13.73
2023-11-11T06:27:16.958Z,12.75
2023-11-11T06:29:44.256Z,12.85
2023-11-11T06:32:11.604Z,13.02
2023-11-11T06:34:38.789Z,13.60
2023-11-11T06:37:05.958Z,13.48
2023-11-11T06:39:33.758Z,12.77
2023-11-11T06:42:01.332Z,13.43
2023-11-11T06:44:28.489Z,14.30
2023-11-11T06:46:55.583Z,13.90
2023-11-11T06:49:22.907Z,12.98
2023-11-11T06:51:50.185Z,14.13
2023-11-11T06:54:17.311Z,13.85
2023-11-11T06:56:44.469Z,13.20
2023-11-11T06:59:12.375Z,13.52
2023-11-11T07:01:40.982Z,13.52
2023-11-11T07:04:09.084Z,12.90
2023-11-11T07:06:36.375Z,12.48
2023-11-11T07:09:03.720Z,13.30
2023-11-11T07:11:30.932Z,12.48
2023-11-11T07:13:58.117Z,14.10
2023-11-11T07:16:25.423Z,14.80
2023-11-11T07:18:52.701Z,13.13
2023-11-11T07:21:25.717Z,13.43
2023-11-11T07:23:54.372Z,13.95
2023-11-11T07:26:21.806Z,15.95
2023-11-11T07:28:50.276Z,15.38
2023-11-11T07:31:18.704Z,15.02
2023-11-11T07:33:47.037Z,13.52
2023-11-11T07:36:14.459Z,12.98
2023-11-11T07:38:42.849Z,15.02
2023-11-11T07:41:11.750Z,15.40
2023-11-11T07:43:42.290Z,14.27
2023-11-11T07:46:10.919Z,13.90
2023-11-11T07:48:38.644Z,14.57
2023-11-11T07:51:06.743Z,13.45
2023-11-11T07:53:34.136Z,12.38
2023-11-11T07:56:04.311Z,13.77
2023-11-11T08:01:04.924Z,13.05
2023-11-11T08:03:34.296Z,14.57
2023-11-11T08:06:01.487Z,13.00
2023-11-11T08:08:31.006Z,13.18
2023-11-11T08:10:58.827Z,13.60
2023-11-11T08:13:26.408Z,14.65
2023-11-11T08:15:54.296Z,13.20
2023-11-11T08:18:22.010Z,12.85
2023-11-11T08:20:49.753Z,13.70
2023-11-11T08:23:17.067Z,13.82
2023-11-11T08:25:44.318Z,14.82
2023-11-11T08:28:11.725Z,13.52
2023-11-11T08:30:40.615Z,14.13
2023-11-11T08:33:09.764Z,14.50
2023-11-11T08:35:36.903Z,14.70
2023-11-11T08:38:04.047Z,14.45
2023-11-11T08:40:31.184Z,12.77
2023-11-11T08:42:58.586Z,14.23
2023-11-11T08:45:26.224Z,13.60
2023-11-11T08:47:53.530Z,15.77
2023-11-11T08:50:21.827Z,14.63
2023-11-11T08:52:49.942Z,15.68
2023-11-11T08:55:17.459Z,16.70
2023-11-11T08:57:46.074Z,15.18
2023-11-11T09:00:13.951Z,13.80
2023-11-11T09:02:41.589Z,15.23
2023-11-11T09:05:08.992Z,14.88
2023-11-11T09:07:36.288Z,15.38
2023-11-11T09:10:06.884Z,13.98
2023-11-11T09:12:34.347Z,13.52
2023-11-11T09:15:01.973Z,14.52
2023-11-11T09:17:31.435Z,14.85
2023-11-11T09:19:59.076Z,15.30
2023-11-11T09:22:26.816Z,15.65
2023-11-11T09:24:54.393Z,14.65
2023-11-11T09:27:21.578Z,13.88
2023-11-11T09:29:49.030Z,14.13
2023-11-11T09:32:16.273Z,15.35
2023-11-11T09:34:44.123Z,15.23
2023-11-11T09:37:12.225Z,14.18
2023-11-11T09:39:39.620Z,14.90
2023-11-11T09:42:11.593Z,15.93
2023-11-11T09:47:18.705Z,19.67
2023-11-11T09:49:46.295Z,16.48
2023-11-11T09:52:15.305Z,15.05
2023-11-11T09:54:49.445Z,15.43
2023-11-11T09:57:21.912Z,13.18
2023-11-11T09:59:55.037Z,14.13
2023-11-11T10:02:25.106Z,13.95
2023-11-11T10:04:54.508Z,15.00
2023-11-11T10:07:23.119Z,14.02
2023-11-11T10:09:52.174Z,15.85
2023-11-11T10:12:19.383Z,14.90
2023-11-11T10:14:48.547Z,15.30
2023-11-11T10:17:15.764Z,16.40
2023-11-11T10:19:54.454Z,14.57
2023-11-11T10:22:27.411Z,15.38
2023-11-11T10:24:57.747Z,14.80
2023-11-11T10:27:25.277Z,15.07
2023-11-11T10:29:52.815Z,14.88
2023-11-11T10:32:20.867Z,15.02
2023-11-11T10:34:48.227Z,14.60
2023-11-11T10:37:15.395Z,15.73
2023-11-11T10:39:42.543Z,14.82
2023-11-11T10:42:09.739Z,14.43
2023-11-11T10:44:36.967Z,15.02
2023-11-11T10:47:05.376Z,15.00
2023-11-11T10:49:35.945Z,15.27
2023-11-11T10:52:03.580Z,14.48
2023-11-11T10:54:32.625Z,14.77
2023-11-11T10:57:01.628Z,13.68
2023-11-11T10:59:29.602Z,15.10
2023-11-11T11:01:57.154Z,14.88
2023-11-11T11:04:28.449Z,15.80
2023-11-11T11:07:05.828Z,13.57
2023-11-11T11:09:55.913Z,14.35
2023-11-11T11:12:39.760Z,14.05
2023-11-11T11:15:07.765Z,13.82
2023-11-11T11:17:42.672Z,13.05
2023-11-11T11:20:21.896Z,14.32
2023-11-11T11:22:49.373Z,14.95
2023-11-11T11:25:39.353Z,14.13
2023-11-11T11:28:13.465Z,13.35
2023-11-11T11:30:43.433Z,13.85
2023-11-11T11:33:40.557Z,13.43
2023-11-11T11:36:10.660Z,13.03
2023-11-11T11:38:40.626Z,12.25
2023-11-11T11:41:22.393Z,15.05
2023-11-11T11:43:55.032Z,12.75
2023-11-11T11:46:23.185Z,13.32
2023-11-11T11:48:52.275Z,13.32
2023-11-11T11:51:21.252Z,14.32
2023-11-11T11:53:54.739Z,13.43
2023-11-11T11:56:30.689Z,13.35
2023-11-11T11:59:00.506Z,13.77
2023-11-11T12:01:29.887Z,12.00
2023-11-11T12:03:58.146Z,13.82
2023-11-11T12:06:26.376Z,12.85
2023-11-11T12:08:56.224Z,15.60
2023-11-11T12:11:25.421Z,14.07
2023-11-11T12:13:53.923Z,13.57
2023-11-11T12:16:21.912Z,12.45
2023-11-11T12:18:49.003Z,14.07
2023-11-11T12:21:20.009Z,11.98
2023-11-11T12:23:49.231Z,12.40
2023-11-11T12:26:17.684Z,13.32
2023-11-11T12:28:44.902Z,13.07
2023-11-11T12:31:12.226Z,12.02
2023-11-11T12:33:39.568Z,13.10
2023-11-11T12:36:07.330Z,14.07
2023-11-11T12:38:34.527Z,13.45
2023-11-11T12:41:11.230Z,13.07
2023-11-11T12:43:41.583Z,13.68
2023-11-11T12:46:17.235Z,13.50
2023-11-11T12:48:44.743Z,13.82
2023-11-11T12:51:31.213Z,13.57
2023-11-11T12:53:58.864Z,15.10
2023-11-11T12:56:26.942Z,15.50
2023-11-11T12:59:11.450Z,14.20
2023-11-11T13:01:39.509Z,15.98
2023-11-11T13:04:09.567Z,14.02
2023-11-11T13:06:37.399Z,14.02
2023-11-11T13:09:15.722Z,12.70
2023-11-11T13:11:44.982Z,13.65
2023-11-11T13:14:13.890Z,14.30
2023-11-11T13:16:45.364Z,12.95
2023-11-11T13:19:12.997Z,14.38
2023-11-11T13:21:40.972Z,12.55
2023-11-11T13:24:09.170Z,13.13
2023-11-11T13:26:37.309Z,12.70
2023-11-11T13:29:06.530Z,13.23
2023-11-11T13:31:33.800Z,12.93
2023-11-11T13:34:01.234Z,13.10
2023-11-11T13:36:31.739Z,13.60
2023-11-11T13:39:01.950Z,14.65
2023-11-11T13:41:37.580Z,14.68
2023-11-11T13:44:05.183Z,15.00
2023-11-11T13:46:32.959Z,14.65
2023-11-11T13:49:02.046Z,14.15
2023-11-11T13:51:29.305Z,14.43
2023-11-11T13:53:57.119Z,13.13
2023-11-11T13:56:26.745Z,15.30
2023-11-11T13:58:57.085Z,14.43
2023-11-11T14:01:28.629Z,13.73
2023-11-11T14:03:58.102Z,14.52
2023-11-11T14:06:30.460Z,14.88
2023-11-11T14:08:59.615Z,14.48
2023-11-11T14:11:28.905Z,15.43
2023-11-11T14:13:56.399Z,15.77
2023-11-11T14:16:25.753Z,14.88
2023-11-11T14:18:53.236Z,13.02
2023-11-11T14:21:20.953Z,13.85
2023-11-11T14:23:48.162Z,15.02
2023-11-11T14:26:16.557Z,14.10
2023-11-11T14:28:43.825Z,14.00
2023-11-11T14:31:11.002Z,14.10
2023-11-11T14:33:38.411Z,13.98
2023-11-11T14:36:06.128Z,14.07
2023-11-11T14:38:34.001Z,14.43
2023-11-11T14:41:04.139Z,13.48
2023-11-11T14:43:31.354Z,15.07
2023-11-11T14:45:58.811Z,16.20
2023-11-11T14:48:27.434Z,17.77
2023-11-11T14:50:54.718Z,18.13
2023-11-11T14:53:22.468Z,17.17
2023-11-11T14:55:50.225Z,17.83
2023-11-11T14:58:17.407Z,17.40
2023-11-11T15:00:45.367Z,16.92
2023-11-11T15:03:14.332Z,17.88
2023-11-11T15:05:41.914Z,17.48
2023-11-11T15:08:10.075Z,16.77
2023-11-11T15:10:41.196Z,15.98
2023-11-11T15:13:17.125Z,14.27
2023-11-11T15:15:49.295Z,16.70
2023-11-11T15:18:17.965Z,15.98
2023-11-11T15:20:45.862Z,15.57
2023-11-11T15:23:15.212Z,15.05
2023-11-11T15:25:42.536Z,14.80
2023-11-11T15:28:09.732Z,15.50
2023-11-11T15:30:37.080Z,15.85
2023-11-11T15:33:05.436Z,15.88
2023-11-11T15:35:33.545Z,13.93
2023-11-11T15:38:02.680Z,15.93
2023-11-11T15:40:29.989Z,15.23
2023-11-11T15:42:57.400Z,14.63
2023-11-11T15:45:24.830Z,14.48
2023-11-11T15:47:52.163Z,16.00
2023-11-11T15:50:20.351Z,17.95
2023-11-11T15:52:47.569Z,16.80
2023-11-11T15:55:15.235Z,17.40
2023-11-11T15:57:42.367Z,16.83
2023-11-11T16:00:10.151Z,16.08
2023-11-11T16:02:43.262Z,15.55
2023-11-11T16:05:10.780Z,17.33
2023-11-11T16:07:38.722Z,16.30
2023-11-11T16:10:06.478Z,15.80
2023-11-11T16:12:33.975Z,17.10
2023-11-11T16:15:01.692Z,18.33
2023-11-11T16:17:33.303Z,18.23
2023-11-11T16:20:00.620Z,17.92
2023-11-11T16:22:28.628Z,18.50
2023-11-11T16:24:56.299Z,19.50
2023-11-11T16:27:23.814Z,22.30
2023-11-11T16:29:53.638Z,20.33
2023-11-11T16:32:23.842Z,19.58
2023-11-11T16:34:51.314Z,18.70
2023-11-11T16:37:18.596Z,21.08
2023-11-11T16:39:46.298Z,25.55
2023-11-11T16:42:14.839Z,18.75
2023-11-11T16:44:48.219Z,23.02
2023-11-11T16:47:15.663Z,20.27
2023-11-11T16:49:44.078Z,22.23
2023-11-11T16:52:11.143Z,19.98
2023-11-11T16:54:38.260Z,21.58
2023-11-11T16:57:05.544Z,23.08
2023-11-11T16:59:32.717Z,19.58
2023-11-11T17:01:59.974Z,23.55
2023-11-11T17:04:27.396Z,20.58
2023-11-11T17:06:54.514Z,18.58
2023-11-11T17:09:23.664Z,20.30
2023-11-11T17:11:50.892Z,21.23
2023-11-11T17:14:18.128Z,20.42
2023-11-11T17:16:45.330Z,17.92
2023-11-11T17:19:13.037Z,16.33
2023-11-11T17:21:40.329Z,16.98
2023-11-11T17:24:08.344Z,16.80
2023-11-11T17:26:35.352Z,16.15
2023-11-11T17:29:02.473Z,17.10
2023-11-11T17:31:30.784Z,17.50
2023-11-11T17:33:58.313Z,15.57
2023-11-11T17:36:32.786Z,14.73
2023-11-11T17:39:00.337Z,16.08
2023-11-11T17:41:27.713Z,14.32
2023-11-11T17:43:55.005Z,14.57
2023-11-11T17:46:23.409Z,14.10
2023-11-11T17:48:51.211Z,15.32
2023-11-11T17:51:20.464Z,15.27
2023-11-11T17:53:48.523Z,15.20
2023-11-11T17:56:23.823Z,15.40
2023-11-11T17:58:51.296Z,15.52
2023-11-11T18:01:18.679Z,14.65
2023-11-11T18:03:46.742Z,15.23
2023-11-11T18:06:14.471Z,16.15
2023-11-11T18:08:42.975Z,18.20
2023-11-11T18:11:11.017Z,17.67
2023-11-11T18:13:38.469Z,17.77
2023-11-11T18:16:09.675Z,18.85
2023-11-11T18:18:36.911Z,20.50
2023-11-11T18:21:04.165Z,20.52
2023-11-11T18:23:31.270Z,20.95
2023-11-11T18:25:58.439Z,21.83
2023-11-11T18:28:25.640Z,25.58
2023-11-11T18:30:52.919Z,22.90
2023-11-11T18:33:20.085Z,20.40
2023-11-11T18:35:48.106Z,19.77
2023-11-11T18:38:15.875Z,19.88
2023-11-11T18:40:44.757Z,20.15
2023-11-11T18:43:13.103Z,21.15
2023-11-11T18:45:40.418Z,19.80
2023-11-11T18:48:07.926Z,20.27
2023-11-11T18:50:35.222Z,18.27
2023-11-11T18:53:02.442Z,18.52
2023-11-11T18:55:30.882Z,18.08
2023-11-11T18:57:58.188Z,18.60
2023-11-11T19:00:25.299Z,18.50
2023-11-11T19:02:52.559Z,19.20
2023-11-11T19:05:19.994Z,19.52
2023-11-11T19:07:47.233Z,17.77
2023-11-11T19:10:14.541Z,17.58
2023-11-11T19:12:41.751Z,18.77
2023-11-11T19:15:10.803Z,16.90
2023-11-11T19:17:42.449Z,16.13
2023-11-11T19:20:12.019Z,15.43
2023-11-11T19:22:39.203Z,15.50
2023-11-11T19:25:07.789Z,16.83
2023-11-11T19:27:37.752Z,14.48
2023-11-11T19:30:06.795Z,15.00
2023-11-11T19:32:34.140Z,15.50
2023-11-11T19:35:01.841Z,14.20
2023-11-11T19:37:31.277Z,13.88
2023-11-11T19:39:58.517Z,13.35
2023-11-11T19:42:26.626Z,13.23
2023-11-11T19:44:54.539Z,13.43
2023-11-11T19:47:23.053Z,13.88
2023-11-11T19:49:50.300Z,13.50
2023-11-11T19:52:17.525Z,12.90
2023-11-11T19:54:44.722Z,12.68
2023-11-11T19:57:11.868Z,13.07
2023-11-11T19:59:39.583Z,13.55
2023-11-11T20:02:10.293Z,12.20
2023-11-11T20:04:39.296Z,13.70
2023-11-11T20:07:06.507Z,14.27
2023-11-11T20:09:37.513Z,12.98
2023-11-11T20:12:05.560Z,14.30
2023-11-11T20:14:32.849Z,14.77
2023-11-11T20:17:00.048Z,13.95
2023-11-11T20:19:27.428Z,13.20
2023-11-11T20:21:56.353Z,12.30
2023-11-11T20:24:23.880Z,12.45
2023-11-11T20:26:50.993Z,13.55
2023-11-11T20:29:18.277Z,14.02
2023-11-11T20:31:45.651Z,13.60
2023-11-11T20:34:12.867Z,14.45
2023-11-11T20:36:44.660Z,15.13
2023-11-11T20:39:11.876Z,13.52
2023-11-11T20:41:43.266Z,14.05
2023-11-11T20:44:10.620Z,14.05
2023-11-11T20:46:38.058Z,16.42
2023-11-11T20:49:05.387Z,15.35
2023-11-11T20:51:32.649Z,14.38
2023-11-11T20:53:59.888Z,13.18
2023-11-11T20:56:27.001Z,15.38
2023-11-11T20:58:54.358Z,15.43
2023-11-11T21:01:24.263Z,18.67
2023-11-11T21:03:52.156Z,17.13
2023-11-11T21:06:22.493Z,18.17
2023-11-11T21:08:50.629Z,17.15
2023-11-11T21:11:17.999Z,17.13
2023-11-11T21:13:45.309Z,17.92
2023-11-11T21:16:12.521Z,16.00
2023-11-11T21:18:40.763Z,16.40
2023-11-11T21:21:07.924Z,17.70
2023-11-11T21:23:35.204Z,17.73
2023-11-11T21:26:02.892Z,16.02
2023-11-11T21:28:30.019Z,15.52
2023-11-11T21:30:57.511Z,15.00
2023-11-11T21:33:24.793Z,15.95
2023-11-11T21:35:51.965Z,17.75
2023-11-11T21:38:20.546Z,15.27
2023-11-11T21:40:47.911Z,16.38
2023-11-11T21:43:15.044Z,16.17
2023-11-11T21:45:42.705Z,16.08
2023-11-11T21:48:09.924Z,17.45
2023-11-11T21:50:37.127Z,17.85
2023-11-11T21:53:04.413Z,15.45
2023-11-11T21:55:31.625Z,15.23
2023-11-11T21:57:59.264Z,16.65
2023-11-11T22:00:26.548Z,16.05
2023-11-11T22:02:54.433Z,15.70
2023-11-11T22:05:22.256Z,15.50
2023-11-11T22:07:49.537Z,17.33
2023-11-11T22:10:16.957Z,15.60
2023-11-11T22:12:44.125Z,16.60
2023-11-11T22:15:11.402Z,14.70
2023-11-11T22:17:38.780Z,15.90
2023-11-11T22:20:07.805Z,12.90
2023-11-11T22:22:40.055Z,12.98
2023-11-11T22:25:08.647Z,13.85
2023-11-11T22:27:36.804Z,12.98
2023-11-11T22:30:05.746Z,14.38
2023-11-11T22:32:33.817Z,12.05
2023-11-11T22:35:01.107Z,12.35
2023-11-11T22:37:28.296Z,12.45
2023-11-11T22:39:56.254Z,13.13
2023-11-11T22:42:23.404Z,14.52
2023-11-11T22:44:50.600Z,13.20
2023-11-11T22:47:18.388Z,13.80
2023-11-11T22:49:46.597Z,13.10
2023-11-11T22:52:15.229Z,12.98
2023-11-11T22:54:42.466Z,10.00
2023-11-11T22:57:09.647Z,12.38
2023-11-11T22:59:37.755Z,11.30
2023-11-11T23:02:05.146Z,12.73
2023-11-11T23:04:32.366Z,10.57
2023-11-11T23:07:01.305Z,10.60
2023-11-11T23:09:28.450Z,10.32
2023-11-11T23:11:55.991Z,9.75
2023-11-11T23:14:23.181Z,9.27
2023-11-11T23:16:50.426Z,8.85
2023-11-11T23:19:17.715Z,11.00
2023-11-11T23:21:45.018Z,9.90
2023-11-11T23:24:12.150Z,8.20
2023-11-11T23:26:39.225Z,9.10
2023-11-11T23:29:06.920Z,10.95
2023-11-11T23:31:34.154Z,10.60
2023-11-11T23:34:01.310Z,12.32
2023-11-11T23:36:28.528Z,10.82
2023-11-11T23:38:55.689Z,9.68
2023-11-11T23:41:23.323Z,12.25
2023-11-11T23:43:50.819Z,10.50
2023-11-11T23:46:18.699Z,11.75
2023-11-11T23:48:47.052Z,10.50
2023-11-11T23:51:14.440Z,10.82
2023-11-11T23:53:43.317Z,10.65
2023-11-11T23:56:10.475Z,10.35
2023-11-11T23:58:37.584Z,12.00
